Terminal Aerodrome Forecast
Issued by NWS Nashville, TN

Home | Current Version | Previous Version | Text Only | Print | Product List | Glossary On
Versions: 1 2 3 4 5 6 7 8 9 10 11 12 13 14 15
495
FTUS44 KOHX 271126
TAFCSV
TAF
KCSV 271126Z 2712/2812 00000KT 5SM BR SCT250
     FM271300 18006KT P6SM BKN250
     FM271800 18007KT P6SM SCT040 BKN250
     FM281100 00000KT 5SM BR SCT250=

USA.gov is the U.S. government's official web portal to all federal, state and local government web resources and services.